createdAt,value
2023-04-21T00:01:11.941Z,14.07
2023-04-21T00:03:39.714Z,12.73
2023-04-21T00:06:09.326Z,15.57
2023-04-21T00:08:40.413Z,15.48
2023-04-21T00:11:08.514Z,13.50
2023-04-21T00:13:36.653Z,12.75
2023-04-21T00:16:04.550Z,13.23
2023-04-21T00:18:32.190Z,15.30
2023-04-21T00:20:59.743Z,15.10
2023-04-21T00:23:27.224Z,14.82
2023-04-21T00:25:56.228Z,13.95
2023-04-21T00:28:24.080Z,15.63
2023-04-21T00:30:51.508Z,12.32
2023-04-21T00:33:18.896Z,15.80
2023-04-21T00:35:46.400Z,15.32
2023-04-21T00:38:13.771Z,18.90
2023-04-21T00:40:42.787Z,17.83
2023-04-21T00:43:13.858Z,19.05
2023-04-21T00:45:41.316Z,17.73
2023-04-21T00:48:08.809Z,17.50
2023-04-21T00:50:36.350Z,17.67
2023-04-21T00:53:04.082Z,16.25
2023-04-21T00:55:31.512Z,15.25
2023-04-21T00:57:58.996Z,18.15
2023-04-21T01:00:30.800Z,16.15
2023-04-21T01:03:01.074Z,17.60
2023-04-21T01:05:28.667Z,16.58
2023-04-21T01:07:56.323Z,22.35
2023-04-21T01:10:24.235Z,19.40
2023-04-21T01:12:52.344Z,17.90
2023-04-21T01:15:20.036Z,18.13
2023-04-21T01:17:49.693Z,19.45
2023-04-21T01:20:17.353Z,17.77
2023-04-21T01:22:46.882Z,18.50
2023-04-21T01:25:15.022Z,21.10
2023-04-21T01:27:42.430Z,21.02
2023-04-21T01:30:10.450Z,20.23
2023-04-21T01:32:38.001Z,21.63
2023-04-21T01:35:06.623Z,19.50
2023-04-21T01:37:34.532Z,23.58
2023-04-21T01:40:07.155Z,19.35
2023-04-21T01:42:36.727Z,22.60
2023-04-21T01:45:05.115Z,21.45
2023-04-21T01:47:33.307Z,17.55
2023-04-21T01:50:00.873Z,21.20
2023-04-21T01:52:28.402Z,23.25
2023-04-21T01:54:55.917Z,22.20
2023-04-21T01:57:24.659Z,22.15
2023-04-21T01:59:52.576Z,19.63
2023-04-21T02:02:20.131Z,20.23
2023-04-21T02:04:47.601Z,21.67
2023-04-21T02:07:15.180Z,22.48
2023-04-21T02:09:42.953Z,22.08
2023-04-21T02:12:10.554Z,25.23
2023-04-21T02:14:39.414Z,24.08
2023-04-21T02:17:08.347Z,22.48
2023-04-21T02:19:36.005Z,25.75
2023-04-21T02:22:03.997Z,21.05
2023-04-21T02:24:31.435Z,22.73
2023-04-21T02:26:58.869Z,20.70
2023-04-21T02:29:28.893Z,23.13
2023-04-21T02:32:02.863Z,22.73
2023-04-21T02:34:31.029Z,20.67
2023-04-21T02:36:59.689Z,22.38
2023-04-21T02:39:27.247Z,19.02
2023-04-21T02:41:54.767Z,18.98
2023-04-21T02:44:22.165Z,21.63
2023-04-21T02:46:49.734Z,22.38
2023-04-21T02:49:18.792Z,18.92
2023-04-21T02:51:46.466Z,20.88
2023-04-21T02:54:13.912Z,23.08
2023-04-21T02:56:42.312Z,20.65
2023-04-21T02:59:11.388Z,22.48
2023-04-21T03:01:40.398Z,23.48
2023-04-21T03:04:09.224Z,20.38
2023-04-21T03:06:40.480Z,19.48
2023-04-21T03:09:08.011Z,20.55
2023-04-21T03:11:35.405Z,18.60
2023-04-21T03:14:02.949Z,20.50
2023-04-21T03:16:30.350Z,19.83
2023-04-21T03:18:57.766Z,18.95
2023-04-21T03:21:25.339Z,23.30
2023-04-21T03:23:54.286Z,19.42
2023-04-21T03:28:49.505Z,19.90
2023-04-21T03:31:16.931Z,19.52
2023-04-21T03:33:44.347Z,20.55
2023-04-21T03:36:11.761Z,17.58
2023-04-21T03:38:39.444Z,20.48
2023-04-21T03:41:08.331Z,21.65
2023-04-21T03:43:36.218Z,21.17
2023-04-21T03:46:03.790Z,21.80
2023-04-21T03:48:32.029Z,19.70
2023-04-21T03:50:59.479Z,24.67
2023-04-21T03:53:26.832Z,25.98
2023-04-21T03:55:54.227Z,27.42
2023-04-21T03:58:23.020Z,27.05
2023-04-21T04:00:50.491Z,26.23
2023-04-21T04:03:19.155Z,22.75
2023-04-21T04:05:48.063Z,23.23
2023-04-21T04:08:15.434Z,29.60
2023-04-21T04:10:42.830Z,27.38
2023-04-21T04:13:10.231Z,24.63
2023-04-21T04:15:39.066Z,25.20
2023-04-21T04:18:06.665Z,25.95
2023-04-21T04:20:34.202Z,23.02
2023-04-21T04:23:01.633Z,20.63
2023-04-21T04:25:29.032Z,24.00
2023-04-21T04:27:57.426Z,23.08
2023-04-21T04:30:27.919Z,26.52
2023-04-21T04:32:58.053Z,25.92
2023-04-21T04:35:25.649Z,25.77
2023-04-21T04:37:54.738Z,25.38
2023-04-21T04:40:22.430Z,25.50
2023-04-21T04:42:49.919Z,27.42
2023-04-21T04:45:17.548Z,28.35
2023-04-21T04:47:45.873Z,27.77
2023-04-21T04:50:14.750Z,30.80
2023-04-21T04:52:42.155Z,27.88
2023-04-21T04:55:09.597Z,24.55
2023-04-21T04:57:37.116Z,27.27
2023-04-21T05:00:06.846Z,24.25
2023-04-21T05:02:34.662Z,25.65
2023-04-21T05:05:02.405Z,27.65
2023-04-21T05:07:31.492Z,27.85
2023-04-21T05:12:26.141Z,27.02
2023-04-21T05:14:53.580Z,23.73
2023-04-21T05:17:21.054Z,35.25
2023-04-21T05:19:48.540Z,33.38
2023-04-21T05:22:15.899Z,41.38
2023-04-21T05:24:44.665Z,32.20
2023-04-21T05:27:12.118Z,38.40
2023-04-21T05:29:39.572Z,39.22
2023-04-21T05:32:07.091Z,38.55
2023-04-21T05:34:34.640Z,34.20
2023-04-21T05:37:02.033Z,36.55
2023-04-21T05:39:29.409Z,34.38
2023-04-21T05:41:58.425Z,32.90
2023-04-21T05:44:25.826Z,21.25
2023-04-21T05:46:53.251Z,23.35
2023-04-21T05:49:20.630Z,29.33
2023-04-21T05:51:48.046Z,26.42
2023-04-21T05:54:16.591Z,26.52
2023-04-21T05:56:44.072Z,29.27
2023-04-21T05:59:12.914Z,28.92
2023-04-21T06:01:40.369Z,26.52
2023-04-21T06:04:07.966Z,28.38
2023-04-21T06:06:35.495Z,29.60
2023-04-21T06:09:03.560Z,23.92
2023-04-21T06:11:33.487Z,27.83
2023-04-21T06:14:01.840Z,25.27
2023-04-21T06:16:34.052Z,27.30
2023-04-21T06:19:01.515Z,27.55
2023-04-21T06:21:29.095Z,27.30
2023-04-21T06:23:56.558Z,25.45
2023-04-21T06:26:25.058Z,28.60
2023-04-21T06:28:52.529Z,21.58
2023-04-21T06:31:20.043Z,21.88
2023-04-21T06:33:49.064Z,20.10
2023-04-21T06:38:45.506Z,16.02
2023-04-21T06:41:12.950Z,17.80
2023-04-21T06:43:40.377Z,16.17
2023-04-21T06:46:08.558Z,17.42
2023-04-21T06:48:36.002Z,16.67
2023-04-21T06:51:05.064Z,16.38
2023-04-21T06:53:32.592Z,17.63
2023-04-21T06:56:00.115Z,17.77
2023-04-21T06:58:27.595Z,20.88
2023-04-21T07:00:55.013Z,16.67
2023-04-21T07:03:22.694Z,16.75
2023-04-21T07:05:50.529Z,15.65
2023-04-21T07:08:19.351Z,16.23
2023-04-21T07:10:46.779Z,16.77
2023-04-21T07:13:14.322Z,14.00
2023-04-21T07:15:41.861Z,16.08
2023-04-21T07:18:09.373Z,16.55
2023-04-21T07:20:37.050Z,13.23
2023-04-21T07:23:04.549Z,13.95
2023-04-21T07:25:33.340Z,14.70
2023-04-21T07:28:00.961Z,13.45
2023-04-21T07:30:29.387Z,12.80
2023-04-21T07:32:57.777Z,12.07
2023-04-21T07:35:25.706Z,12.30
2023-04-21T07:37:53.131Z,15.90
2023-04-21T07:40:20.763Z,11.13
2023-04-21T07:42:49.730Z,11.30
2023-04-21T07:45:17.746Z,12.35
2023-04-21T07:47:46.283Z,10.13
2023-04-21T07:50:15.785Z,11.00
2023-04-21T07:52:43.282Z,10.82
2023-04-21T07:55:10.894Z,9.27
2023-04-21T07:57:40.066Z,9.45
2023-04-21T08:00:10.724Z,11.63
2023-04-21T08:02:41.397Z,12.32
2023-04-21T08:05:09.498Z,11.57
2023-04-21T08:07:37.461Z,13.10
2023-04-21T08:10:06.183Z,10.40
2023-04-21T08:15:05.692Z,8.45
2023-04-21T08:17:35.057Z,9.68
2023-04-21T08:20:02.877Z,9.48
2023-04-21T08:22:31.426Z,8.38
2023-04-21T08:24:58.953Z,7.72
2023-04-21T08:27:26.442Z,8.57
2023-04-21T08:29:54.005Z,7.53
2023-04-21T08:32:24.593Z,7.50
2023-04-21T08:34:54.497Z,7.10
2023-04-21T08:37:22.138Z,10.60
2023-04-21T08:39:53.682Z,8.85
2023-04-21T08:42:21.326Z,7.47
2023-04-21T08:44:48.887Z,9.15
2023-04-21T08:47:16.355Z,8.88
2023-04-21T08:49:45.195Z,11.23
2023-04-21T08:52:14.765Z,9.23
2023-04-21T08:54:43.058Z,9.00
2023-04-21T08:57:15.296Z,8.52
2023-04-21T08:59:44.844Z,8.90
2023-04-21T09:02:15.933Z,8.57
2023-04-21T09:04:46.497Z,8.77
2023-04-21T09:07:32.442Z,9.70
2023-04-21T09:10:00.858Z,11.50
2023-04-21T09:14:58.110Z,9.93
2023-04-21T09:17:32.556Z,9.57
2023-04-21T09:20:14.218Z,9.48
2023-04-21T09:22:43.647Z,9.48
2023-04-21T09:25:15.798Z,8.45
2023-04-21T09:27:43.759Z,12.60
2023-04-21T09:30:12.074Z,7.53
2023-04-21T09:35:10.221Z,7.72
2023-04-21T09:37:38.758Z,7.75
2023-04-21T09:42:39.242Z,8.32
2023-04-21T09:47:44.045Z,9.02
2023-04-21T09:50:13.210Z,7.68
2023-04-21T09:52:43.512Z,8.48
2023-04-21T09:55:13.310Z,8.15
2023-04-21T09:57:42.190Z,9.95
2023-04-21T10:00:14.424Z,7.78
2023-04-21T10:02:44.631Z,8.45
2023-04-21T10:05:12.912Z,9.52
2023-04-21T10:10:13.085Z,9.80
2023-04-21T10:12:41.966Z,9.95
2023-04-21T10:15:30.559Z,8.77
2023-04-21T10:18:16.827Z,9.65
2023-04-21T10:20:52.336Z,9.27
2023-04-21T10:23:27.880Z,10.38
2023-04-21T10:26:01.812Z,10.30
2023-04-21T10:28:45.890Z,9.25
2023-04-21T10:31:26.576Z,9.98
2023-04-21T10:34:17.348Z,14.75
2023-04-21T10:37:15.555Z,10.32
2023-04-21T10:39:52.345Z,8.98
2023-04-21T10:42:24.956Z,8.02
2023-04-21T10:45:02.428Z,8.68
2023-04-21T10:47:37.122Z,8.55
2023-04-21T10:50:16.163Z,9.20
2023-04-21T10:52:45.112Z,9.18
2023-04-21T10:55:15.624Z,9.32
2023-04-21T10:57:45.489Z,9.80
2023-04-21T11:00:18.740Z,10.55
2023-04-21T11:02:54.982Z,9.45
2023-04-21T11:05:28.850Z,8.80
2023-04-21T11:08:15.468Z,9.68
2023-04-21T11:10:52.162Z,9.63
2023-04-21T11:13:24.878Z,9.07
2023-04-21T11:15:58.397Z,7.68
2023-04-21T11:18:33.950Z,9.38
2023-04-21T11:21:08.341Z,7.95
2023-04-21T11:23:36.246Z,8.57
2023-04-21T11:26:03.804Z,8.23
2023-04-21T11:28:31.340Z,9.60
2023-04-21T11:31:00.513Z,9.57
2023-04-21T11:33:29.168Z,7.45
2023-04-21T11:35:59.027Z,7.75
2023-04-21T11:38:26.568Z,8.05
2023-04-21T11:40:55.010Z,8.13
2023-04-21T11:43:22.467Z,8.23
2023-04-21T11:45:51.020Z,6.72
2023-04-21T11:48:20.082Z,7.72
2023-04-21T11:50:48.582Z,6.32
2023-04-21T11:53:16.210Z,6.55
2023-04-21T11:55:44.394Z,6.90
2023-04-21T11:58:16.241Z,5.85
2023-04-21T12:00:45.577Z,5.78
2023-04-21T12:03:13.720Z,6.10
2023-04-21T12:05:42.685Z,6.07
2023-04-21T12:08:14.754Z,6.68
2023-04-21T12:10:45.278Z,7.03
2023-04-21T12:13:12.888Z,6.80
2023-04-21T12:15:44.414Z,6.68
2023-04-21T12:18:14.049Z,5.45
2023-04-21T12:20:51.370Z,6.65
2023-04-21T12:23:19.223Z,6.03
2023-04-21T12:25:46.951Z,7.05
2023-04-21T12:28:17.148Z,5.88
2023-04-21T12:30:44.801Z,5.07
2023-04-21T12:33:12.890Z,5.00
2023-04-21T12:35:40.652Z,5.32
2023-04-21T12:38:09.518Z,5.22
2023-04-21T12:40:36.912Z,6.72
2023-04-21T12:43:04.262Z,5.35
2023-04-21T12:45:32.656Z,5.25
2023-04-21T12:48:00.397Z,5.82
2023-04-21T12:50:27.841Z,5.68
2023-04-21T12:52:55.249Z,8.82
2023-04-21T12:55:24.219Z,5.35
2023-04-21T12:57:52.729Z,4.85
2023-04-21T13:00:20.769Z,4.88
2023-04-21T13:02:48.327Z,7.53
2023-04-21T13:05:16.011Z,4.32
2023-04-21T13:07:43.568Z,5.70
2023-04-21T13:10:11.553Z,4.80
2023-04-21T13:12:41.363Z,5.25
2023-04-21T13:15:09.728Z,4.65
2023-04-21T13:17:37.096Z,5.22
2023-04-21T13:20:05.307Z,4.97
2023-04-21T13:22:33.208Z,5.75
2023-04-21T13:27:28.115Z,4.97
2023-04-21T13:29:57.225Z,6.53
2023-04-21T13:32:24.859Z,4.95
2023-04-21T13:34:53.792Z,5.30
2023-04-21T13:37:21.304Z,4.18
2023-04-21T13:39:48.822Z,4.65
2023-04-21T13:42:16.184Z,5.00
2023-04-21T13:44:43.644Z,9.13
2023-04-21T13:47:12.506Z,6.00
2023-04-21T13:49:40.159Z,5.63
2023-04-21T13:52:07.606Z,5.35
2023-04-21T13:54:35.085Z,6.65
2023-04-21T13:57:02.714Z,5.30
2023-04-21T13:59:30.727Z,6.75
2023-04-21T14:01:58.373Z,6.18
2023-04-21T14:04:27.346Z,10.60
2023-04-21T14:06:55.488Z,9.90
2023-04-21T14:09:22.954Z,8.25
2023-04-21T14:11:51.109Z,5.20
2023-04-21T14:14:31.321Z,6.35
2023-04-21T14:17:05.126Z,5.20
2023-04-21T14:19:34.157Z,6.05
2023-04-21T14:22:02.189Z,5.68
2023-04-21T14:24:30.302Z,5.47
2023-04-21T14:26:57.932Z,4.72
2023-04-21T14:29:25.762Z,4.88
2023-04-21T14:31:57.645Z,5.07
2023-04-21T14:34:28.463Z,4.28
2023-04-21T14:36:57.333Z,5.95
2023-04-21T14:39:25.007Z,4.90
2023-04-21T14:41:52.612Z,5.57
2023-04-21T14:44:20.080Z,4.80
2023-04-21T14:46:56.960Z,5.78
2023-04-21T14:49:33.754Z,4.40
2023-04-21T14:54:31.124Z,4.20
2023-04-21T14:57:14.671Z,4.75
2023-04-21T14:59:46.809Z,3.90
2023-04-21T15:02:14.696Z,5.35
2023-04-21T15:04:42.316Z,5.43
2023-04-21T15:07:11.438Z,6.35
2023-04-21T15:09:39.247Z,5.45
2023-04-21T15:12:06.913Z,4.53
2023-04-21T15:14:34.618Z,4.90
2023-04-21T15:17:02.225Z,5.15
2023-04-21T15:19:29.707Z,5.03
2023-04-21T15:21:57.413Z,6.35
2023-04-21T15:24:26.156Z,5.90
2023-04-21T15:26:53.622Z,5.78
2023-04-21T15:29:21.160Z,5.55
2023-04-21T15:31:48.809Z,6.95
2023-04-21T15:34:16.381Z,6.28
2023-04-21T15:36:43.780Z,7.25
2023-04-21T15:39:14.145Z,5.00
2023-04-21T15:41:45.941Z,5.95
2023-04-21T15:44:13.369Z,5.07
2023-04-21T15:46:41.105Z,6.93
2023-04-21T15:49:08.615Z,5.35
2023-04-21T15:51:36.140Z,4.95
2023-04-21T15:54:04.402Z,5.25
2023-04-21T15:56:31.790Z,4.85
2023-04-21T15:59:00.661Z,5.53
2023-04-21T16:01:28.430Z,6.10
2023-04-21T16:06:25.295Z,5.85
2023-04-21T16:08:52.852Z,7.38
2023-04-21T16:11:20.423Z,5.10
2023-04-21T16:13:47.855Z,5.95
2023-04-21T16:16:16.712Z,5.20
2023-04-21T16:18:44.286Z,5.85
2023-04-21T16:21:11.951Z,6.70
2023-04-21T16:23:39.921Z,5.68
2023-04-21T16:26:08.909Z,6.30
2023-04-21T16:28:36.431Z,5.07
2023-04-21T16:31:04.115Z,5.13
2023-04-21T16:33:33.014Z,4.68
2023-04-21T16:36:00.443Z,5.85
2023-04-21T16:38:28.213Z,4.80
2023-04-21T16:40:55.745Z,6.03
2023-04-21T16:43:23.287Z,4.63
2023-04-21T16:45:50.895Z,6.65
2023-04-21T16:48:18.451Z,5.35
2023-04-21T16:50:47.278Z,8.32
2023-04-21T16:53:14.754Z,5.28
2023-04-21T16:55:42.219Z,5.80
2023-04-21T16:58:09.679Z,8.02
2023-04-21T17:00:38.188Z,5.60
2023-04-21T17:03:05.843Z,5.93
2023-04-21T17:05:33.439Z,6.20
2023-04-21T17:08:02.236Z,5.80
2023-04-21T17:10:29.726Z,5.05
2023-04-21T17:12:57.148Z,5.53
2023-04-21T17:15:24.564Z,5.15
2023-04-21T17:17:52.114Z,5.03
2023-04-21T17:20:19.478Z,4.63
2023-04-21T17:22:47.010Z,5.97
2023-04-21T17:25:15.870Z,5.10
2023-04-21T17:27:43.456Z,4.75
2023-04-21T17:30:11.278Z,5.05
2023-04-21T17:32:40.892Z,7.10
2023-04-21T17:35:09.022Z,7.10
2023-04-21T17:40:04.457Z,5.65
2023-04-21T17:42:33.837Z,6.03
2023-04-21T17:45:05.140Z,7.43
2023-04-21T17:47:33.416Z,5.03
2023-04-21T17:50:00.909Z,6.85
2023-04-21T17:52:28.401Z,6.55
2023-04-21T17:54:56.089Z,5.70
2023-04-21T17:57:23.859Z,6.47
2023-04-21T17:59:52.708Z,5.78
2023-04-21T18:02:20.344Z,6.85
2023-04-21T18:04:47.925Z,8.60
2023-04-21T18:07:15.643Z,8.35
2023-04-21T18:09:43.460Z,7.47
2023-04-21T18:14:38.758Z,7.20
2023-04-21T18:17:07.889Z,7.15
2023-04-21T18:19:35.378Z,6.13
2023-04-21T18:22:02.804Z,6.15
2023-04-21T18:24:30.578Z,6.35
2023-04-21T18:26:58.401Z,6.93
2023-04-21T18:29:26.346Z,7.63
2023-04-21T18:31:54.040Z,6.93
2023-04-21T18:34:23.005Z,6.78
2023-04-21T18:36:50.528Z,7.60
2023-04-21T18:39:18.063Z,9.10
2023-04-21T18:41:48.359Z,9.90
2023-04-21T18:44:16.188Z,8.10
2023-04-21T18:46:43.647Z,8.45
2023-04-21T18:49:11.102Z,6.97
2023-04-21T18:51:41.207Z,6.80
2023-04-21T18:54:08.770Z,6.88
2023-04-21T18:56:36.405Z,7.90
2023-04-21T18:59:03.877Z,7.43
2023-04-21T19:01:31.317Z,7.03
2023-04-21T19:03:59.281Z,9.13
2023-04-21T19:06:27.924Z,7.60
2023-04-21T19:11:25.175Z,8.90
2023-04-21T19:13:52.591Z,6.30
2023-04-21T19:16:20.462Z,7.15
2023-04-21T19:18:47.955Z,6.65
2023-04-21T19:21:15.570Z,9.35
2023-04-21T19:23:43.040Z,7.07
2023-04-21T19:26:13.225Z,7.20
2023-04-21T19:28:41.341Z,6.82
2023-04-21T19:31:09.225Z,6.75
2023-04-21T19:33:36.598Z,9.27
2023-04-21T19:36:04.295Z,8.18
2023-04-21T19:38:32.324Z,7.57
2023-04-21T19:40:59.773Z,9.98
2023-04-21T19:43:28.597Z,8.00
2023-04-21T19:45:56.800Z,9.10
2023-04-21T19:48:24.588Z,10.02
2023-04-21T19:50:52.300Z,8.52
2023-04-21T19:53:19.898Z,8.30
2023-04-21T19:55:48.684Z,10.57
2023-04-21T19:58:25.217Z,14.13
2023-04-21T20:01:06.387Z,16.10
2023-04-21T20:03:34.084Z,12.88
2023-04-21T20:06:02.220Z,10.35
2023-04-21T20:08:29.662Z,11.20
2023-04-21T20:10:57.458Z,9.60
2023-04-21T20:13:24.959Z,8.85
2023-04-21T20:15:52.455Z,9.00
2023-04-21T20:18:21.775Z,9.07
2023-04-21T20:20:49.237Z,9.05
2023-04-21T20:23:16.731Z,11.23
2023-04-21T20:25:44.303Z,11.05
2023-04-21T20:28:11.810Z,11.40
2023-04-21T20:30:39.278Z,11.43
2023-04-21T20:33:06.793Z,10.80
2023-04-21T20:35:39.397Z,12.85
2023-04-21T20:38:07.968Z,11.38
2023-04-21T20:40:36.136Z,10.07
2023-04-21T20:45:31.488Z,11.65
2023-04-21T20:47:58.984Z,13.25
2023-04-21T20:50:26.742Z,10.98
2023-04-21T20:52:55.616Z,9.43
2023-04-21T20:55:23.070Z,10.40
2023-04-21T20:57:50.468Z,11.40
2023-04-21T21:00:18.113Z,9.70
2023-04-21T21:02:45.790Z,11.75
2023-04-21T21:05:13.371Z,10.20
2023-04-21T21:07:40.931Z,10.93
2023-04-21T21:10:11.418Z,11.65
2023-04-21T21:12:38.981Z,11.05
2023-04-21T21:15:07.908Z,10.48
2023-04-21T21:17:35.583Z,9.77
2023-04-21T21:20:03.159Z,9.80
2023-04-21T21:22:30.870Z,14.00
2023-04-21T21:24:58.250Z,10.77
2023-04-21T21:27:27.059Z,9.18
2023-04-21T21:29:54.533Z,9.85
2023-04-21T21:32:22.184Z,11.68
2023-04-21T21:34:51.975Z,13.25
2023-04-21T21:37:19.523Z,13.05
2023-04-21T21:39:47.094Z,10.73
2023-04-21T21:42:14.458Z,11.88
2023-04-21T21:44:43.333Z,10.93
2023-04-21T21:47:10.778Z,10.50
2023-04-21T21:49:38.574Z,10.48
2023-04-21T21:52:06.296Z,8.80
2023-04-21T21:54:33.807Z,10.38
2023-04-21T21:57:01.967Z,8.95
2023-04-21T21:59:29.611Z,9.38
2023-04-21T22:01:58.591Z,8.95
2023-04-21T22:04:26.039Z,11.23
2023-04-21T22:06:53.464Z,10.57
2023-04-21T22:09:21.219Z,10.40
2023-04-21T22:11:48.627Z,11.60
2023-04-21T22:14:22.885Z,11.75
2023-04-21T22:19:22.612Z,8.90
2023-04-21T22:21:50.122Z,8.68
2023-04-21T22:24:17.801Z,9.75
2023-04-21T22:26:45.503Z,9.18
2023-04-21T22:29:13.339Z,10.82
2023-04-21T22:31:40.931Z,10.05
2023-04-21T22:34:08.489Z,11.82
2023-04-21T22:36:37.343Z,10.45
2023-04-21T22:39:04.717Z,10.73
2023-04-21T22:41:32.308Z,8.98
2023-04-21T22:43:59.735Z,10.70
2023-04-21T22:46:31.907Z,9.77
2023-04-21T22:49:00.044Z,8.93
2023-04-21T22:51:27.839Z,9.95
2023-04-21T22:53:56.724Z,11.18
2023-04-21T22:56:24.235Z,10.95
2023-04-21T22:58:51.951Z,8.35
2023-04-21T23:01:19.480Z,10.68
2023-04-21T23:03:47.122Z,8.23
2023-04-21T23:06:14.543Z,10.82
2023-04-21T23:08:41.972Z,9.63
2023-04-21T23:11:11.029Z,11.40
2023-04-21T23:13:39.823Z,9.00
2023-04-21T23:16:07.307Z,8.68
2023-04-21T23:18:34.848Z,9.88
2023-04-21T23:21:02.366Z,10.07
2023-04-21T23:23:29.912Z,8.77
2023-04-21T23:25:57.346Z,8.10
2023-04-21T23:28:26.286Z,8.52
2023-04-21T23:30:53.731Z,8.25
2023-04-21T23:33:21.296Z,8.45
2023-04-21T23:35:48.829Z,9.95
2023-04-21T23:38:16.240Z,8.13
2023-04-21T23:40:43.654Z,9.43
2023-04-21T23:43:11.303Z,8.32
2023-04-21T23:45:40.343Z,8.07
2023-04-21T23:48:07.816Z,8.32
2023-04-21T23:50:35.769Z,11.63
2023-04-21T23:53:03.147Z,8.07
2023-04-21T23:55:30.741Z,12.35
2023-04-21T23:57:58.090Z,10.73
